Time;durP1;ratioP1;P1;durP2;ratioP2;P2;SDS_P1;SDS_P2;PMS_P1;PMS_P2;Temp;Humidity;BMP_temperature;BMP_pressure;BME280_temperature;BME280_humidity;BME280_pressure;Samples;Min_cycle;Max_cycle;Signal;HPM_P1;HPM_P2
2022/04/23 00:02:18;;;;;;;6.85;3.55;;;;;;;;;;5106792;28;20047;-55
2022/04/23 00:04:45;;;;;;;7.38;3.47;;;;;;;;;;5107078;28;20072;-55
2022/04/23 00:07:12;;;;;;;9.55;3.80;;;;;;;;;;5109027;28;20031;-55
2022/04/23 00:09:38;;;;;;;7.80;4.32;;;;;;;;;;5108165;28;20067;-51
2022/04/23 00:12:05;;;;;;;8.73;3.97;;;;;;;;;;5108033;28;20028;-55
2022/04/23 00:14:31;;;;;;;8.60;4.25;;;;;;;;;;5108753;28;20023;-55
2022/04/23 00:17:00;;;;;;;7.47;3.97;;;;;;;;;;5107974;28;20229;-55
2022/04/23 00:19:26;;;;;;;7.90;3.90;;;;;;;;;;5108010;28;20023;-55
2022/04/23 00:21:52;;;;;;;7.75;4.07;;;;;;;;;;5107881;28;20020;-55
2022/04/23 00:24:19;;;;;;;7.43;3.47;;;;;;;;;;5108839;28;20035;-55
2022/04/23 00:26:45;;;;;;;6.50;3.63;;;;;;;;;;5108293;28;20537;-53
2022/04/23 00:29:11;;;;;;;6.78;3.90;;;;;;;;;;5108170;28;20244;-56
2022/04/23 00:31:37;;;;;;;7.40;3.63;;;;;;;;;;5108308;28;20513;-53
2022/04/23 00:34:03;;;;;;;6.20;3.97;;;;;;;;;;5106833;28;20023;-56
2022/04/23 00:36:29;;;;;;;6.75;3.30;;;;;;;;;;5107715;28;20042;-55
2022/04/23 00:38:56;;;;;;;7.25;4.15;;;;;;;;;;5106619;28;20106;-55
2022/04/23 00:44:09;;;;;;;14.70;4.40;;;;;;;;;;5107801;28;20773;-55
2022/04/23 00:46:35;;;;;;;8.23;4.03;;;;;;;;;;5108309;28;20363;-53
2022/04/23 00:49:03;;;;;;;6.22;3.85;;;;;;;;;;5107660;28;20451;-55
2022/04/23 00:51:29;;;;;;;6.75;3.25;;;;;;;;;;5107694;28;20039;-55
2022/04/23 00:53:56;;;;;;;5.68;3.70;;;;;;;;;;5107372;28;20508;-56
2022/04/23 00:56:26;;;;;;;8.70;3.97;;;;;;;;;;5108260;28;20458;-54
2022/04/23 00:58:52;;;;;;;6.85;3.58;;;;;;;;;;5108209;28;20131;-54
2022/04/23 01:01:23;;;;;;;7.57;3.55;;;;;;;;;;5108135;28;20545;-54
2022/04/23 01:03:49;;;;;;;8.05;3.60;;;;;;;;;;5107630;28;20024;-55
2022/04/23 01:06:16;;;;;;;6.53;3.80;;;;;;;;;;5108281;28;20031;-53
2022/04/23 01:08:42;;;;;;;7.78;4.03;;;;;;;;;;5106630;28;20028;-55
2022/04/23 01:11:08;;;;;;;6.55;3.83;;;;;;;;;;5108410;28;20626;-53
2022/04/23 01:13:34;;;;;;;5.95;3.90;;;;;;;;;;5099390;28;20106;-56
2022/04/23 01:16:02;;;;;;;6.22;3.50;;;;;;;;;;5106858;28;20114;-53
2022/04/23 01:18:28;;;;;;;7.47;3.85;;;;;;;;;;5111207;28;20486;-55
2022/04/23 01:20:56;;;;;;;6.32;3.80;;;;;;;;;;5111073;28;20118;-55
2022/04/23 01:23:22;;;;;;;9.73;3.97;;;;;;;;;;5111653;28;20020;-55
2022/04/23 01:25:53;;;;;;;6.82;3.92;;;;;;;;;;5111605;28;20123;-50
2022/04/23 01:28:21;;;;;;;7.63;3.70;;;;;;;;;;5110503;28;20019;-53
2022/04/23 01:30:48;;;;;;;8.18;4.20;;;;;;;;;;5111293;28;20052;-53
2022/04/23 01:33:15;;;;;;;5.20;3.60;;;;;;;;;;5111515;28;20020;-55
2022/04/23 01:35:41;;;;;;;7.30;4.18;;;;;;;;;;5111448;28;20106;-55
2022/04/23 01:38:07;;;;;;;6.20;3.83;;;;;;;;;;5109030;28;20016;-53
2022/04/23 01:40:33;;;;;;;6.72;4.18;;;;;;;;;;5111143;28;20031;-55
2022/04/23 01:42:59;;;;;;;6.00;3.83;;;;;;;;;;5110661;28;20469;-53
2022/04/23 01:45:25;;;;;;;6.53;4.13;;;;;;;;;;5110753;28;20509;-52
2022/04/23 01:47:51;;;;;;;6.72;3.95;;;;;;;;;;5110077;28;20485;-55
2022/04/23 01:50:17;;;;;;;7.35;4.15;;;;;;;;;;5110969;28;20588;-55
2022/04/23 01:52:43;;;;;;;5.50;3.58;;;;;;;;;;5110199;28;20030;-55
2022/04/23 01:55:09;;;;;;;9.85;4.30;;;;;;;;;;5110606;28;20024;-55
2022/04/23 01:57:35;;;;;;;6.10;4.32;;;;;;;;;;5110702;28;20027;-54
2022/04/23 02:00:01;;;;;;;5.95;3.88;;;;;;;;;;5110397;28;20397;-52
2022/04/23 02:02:27;;;;;;;5.50;3.67;;;;;;;;;;5110645;28;20046;-54
2022/04/23 02:04:53;;;;;;;7.30;4.20;;;;;;;;;;5111089;28;21214;-52
2022/04/23 02:07:20;;;;;;;6.28;3.85;;;;;;;;;;5110551;28;20496;-55
2022/04/23 02:09:47;;;;;;;7.63;4.30;;;;;;;;;;5107722;28;20028;-57
2022/04/23 02:12:13;;;;;;;5.93;4.00;;;;;;;;;;5110622;28;20103;-54
2022/04/23 02:14:39;;;;;;;7.03;4.50;;;;;;;;;;5110643;28;20485;-54
2022/04/23 02:17:05;;;;;;;6.95;4.20;;;;;;;;;;5110065;28;20020;-52
2022/04/23 02:19:32;;;;;;;6.68;4.18;;;;;;;;;;5110476;28;20098;-56
2022/04/23 02:21:57;;;;;;;7.95;4.13;;;;;;;;;;5110134;28;20019;-53
2022/04/23 02:24:24;;;;;;;6.38;4.32;;;;;;;;;;5109472;28;20020;-54
2022/04/23 02:26:50;;;;;;;5.85;3.97;;;;;;;;;;5110453;28;20020;-55
2022/04/23 02:29:16;;;;;;;6.82;4.10;;;;;;;;;;5110025;28;20024;-55
2022/04/23 02:31:43;;;;;;;7.95;4.85;;;;;;;;;;5109541;28;20157;-51
2022/04/23 02:34:09;;;;;;;5.65;3.70;;;;;;;;;;5110573;28;20805;-54
2022/04/23 02:36:36;;;;;;;6.35;4.30;;;;;;;;;;5110299;28;20042;-55
2022/04/23 02:39:02;;;;;;;7.55;4.78;;;;;;;;;;5107652;28;20800;-55
2022/04/23 02:41:29;;;;;;;5.88;4.40;;;;;;;;;;5110027;27;20371;-55
2022/04/23 02:43:57;;;;;;;7.72;4.35;;;;;;;;;;5109640;28;20028;-55
2022/04/23 02:46:24;;;;;;;6.07;4.00;;;;;;;;;;5110086;28;20089;-55
2022/04/23 02:48:49;;;;;;;6.45;4.35;;;;;;;;;;5109780;28;20023;-55
2022/04/23 02:51:16;;;;;;;8.27;4.55;;;;;;;;;;5109788;28;20035;-56
2022/04/23 02:53:43;;;;;;;6.57;4.25;;;;;;;;;;5108773;28;20034;-51
2022/04/23 02:56:13;;;;;;;7.95;4.68;;;;;;;;;;5109617;28;20023;-55
2022/04/23 02:58:39;;;;;;;6.10;4.40;;;;;;;;;;5109341;28;20027;-54
2022/04/23 03:01:10;;;;;;;7.93;4.30;;;;;;;;;;5109404;28;20095;-54
2022/04/23 03:03:42;;;;;;;6.78;4.75;;;;;;;;;;5109867;27;20011;-56
2022/04/23 03:06:08;;;;;;;6.55;4.07;;;;;;;;;;5109815;28;20107;-54
2022/04/23 03:08:38;;;;;;;6.60;4.80;;;;;;;;;;5102937;28;20447;-54
2022/04/23 03:11:05;;;;;;;6.82;4.32;;;;;;;;;;5107395;28;20046;-54
2022/04/23 03:13:34;;;;;;;7.28;4.75;;;;;;;;;;5109394;28;20076;-54
2022/04/23 03:16:01;;;;;;;7.45;4.15;;;;;;;;;;5108856;28;20019;-54
2022/04/23 03:18:27;;;;;;;6.03;4.07;;;;;;;;;;5108884;28;20034;-55
2022/04/23 03:20:53;;;;;;;7.47;4.60;;;;;;;;;;5109501;28;20019;-55
2022/04/23 03:23:20;;;;;;;7.10;4.88;;;;;;;;;;5108803;28;20679;-52
2022/04/23 03:25:46;;;;;;;6.97;4.45;;;;;;;;;;5108397;28;20173;-54
2022/04/23 03:28:14;;;;;;;8.05;4.72;;;;;;;;;;5109254;27;20553;-55
2022/04/23 03:30:41;;;;;;;7.45;5.20;;;;;;;;;;5105843;28;20048;-54
2022/04/23 03:33:09;;;;;;;7.30;4.57;;;;;;;;;;5108936;28;20028;-54
2022/04/23 03:35:35;;;;;;;6.57;4.63;;;;;;;;;;5109270;28;20022;-53
2022/04/23 03:38:01;;;;;;;8.27;4.72;;;;;;;;;;5109108;28;20099;-54
2022/04/23 03:40:27;;;;;;;6.60;4.45;;;;;;;;;;5106044;28;20059;-53
2022/04/23 03:42:53;;;;;;;8.07;5.40;;;;;;;;;;5109314;28;20054;-55
2022/04/23 03:45:19;;;;;;;7.13;5.30;;;;;;;;;;5109403;28;20047;-55
2022/04/23 03:47:48;;;;;;;6.78;4.60;;;;;;;;;;5109960;28;20494;-53
2022/04/23 03:50:16;;;;;;;6.40;4.57;;;;;;;;;;5108923;28;20763;-54
2022/04/23 03:52:42;;;;;;;7.40;4.82;;;;;;;;;;5108712;28;20047;-53
2022/04/23 03:55:08;;;;;;;8.23;5.13;;;;;;;;;;5107890;28;20039;-54
2022/04/23 03:57:44;;;;;;;6.85;5.15;;;;;;;;;;5109126;27;20111;-55
2022/04/23 04:00:10;;;;;;;8.20;5.68;;;;;;;;;;5108786;28;20032;-53
2022/04/23 04:02:36;;;;;;;7.45;5.35;;;;;;;;;;5109156;28;20102;-52
2022/04/23 04:05:02;;;;;;;7.63;4.82;;;;;;;;;;5108509;28;20530;-54
2022/04/23 04:07:28;;;;;;;7.95;5.82;;;;;;;;;;5109134;28;20169;-55
2022/04/23 04:09:54;;;;;;;6.82;5.18;;;;;;;;;;5102219;28;20015;-53
2022/04/23 04:12:20;;;;;;;7.47;5.13;;;;;;;;;;5109099;28;20118;-54
2022/04/23 04:14:46;;;;;;;7.22;5.15;;;;;;;;;;5108843;28;20106;-54
2022/04/23 04:17:14;;;;;;;7.40;5.25;;;;;;;;;;5108770;28;20032;-54
2022/04/23 04:19:40;;;;;;;7.13;5.45;;;;;;;;;;5108778;28;20102;-54
2022/04/23 04:22:09;;;;;;;7.88;5.65;;;;;;;;;;5108981;28;20529;-53
2022/04/23 04:24:35;;;;;;;7.05;5.38;;;;;;;;;;5107562;28;20020;-52
2022/04/23 04:27:01;;;;;;;7.28;5.32;;;;;;;;;;5108366;28;20599;-54
2022/04/23 04:29:28;;;;;;;6.65;5.05;;;;;;;;;;5108695;28;20448;-53
2022/04/23 04:31:54;;;;;;;7.78;5.65;;;;;;;;;;5108455;28;20032;-54
2022/04/23 04:34:21;;;;;;;7.65;5.72;;;;;;;;;;5108602;28;20481;-55
2022/04/23 04:36:48;;;;;;;7.70;5.57;;;;;;;;;;5108360;28;20066;-53
2022/04/23 04:39:18;;;;;;;7.88;5.68;;;;;;;;;;5092028;28;20080;-54
2022/04/23 04:41:44;;;;;;;9.45;5.78;;;;;;;;;;5105594;28;20136;-55
2022/04/23 04:44:10;;;;;;;8.52;6.40;;;;;;;;;;5108920;28;20144;-54
2022/04/23 04:46:38;;;;;;;8.48;6.60;;;;;;;;;;5108471;28;20019;-55
2022/04/23 04:49:04;;;;;;;10.63;6.75;;;;;;;;;;5108458;28;20114;-54
2022/04/23 04:51:31;;;;;;;10.85;7.05;;;;;;;;;;5108263;28;20036;-53
2022/04/23 04:53:57;;;;;;;9.82;6.97;;;;;;;;;;5111969;28;20036;-55
2022/04/23 04:56:23;;;;;;;11.52;7.80;;;;;;;;;;5111878;28;20027;-57
2022/04/23 04:58:49;;;;;;;10.18;7.53;;;;;;;;;;5112292;28;20031;-56
2022/04/23 05:01:15;;;;;;;13.82;7.35;;;;;;;;;;5112154;28;20019;-55
2022/04/23 05:03:43;;;;;;;9.88;7.47;;;;;;;;;;5112109;28;20104;-56
2022/04/23 05:06:09;;;;;;;15.45;9.05;;;;;;;;;;5097576;28;20052;-54
2022/04/23 05:08:36;;;;;;;16.40;8.07;;;;;;;;;;5109730;28;20016;-56
2022/04/23 05:11:02;;;;;;;12.90;7.80;;;;;;;;;;5112364;28;20432;-55
2022/04/23 05:13:28;;;;;;;13.02;7.68;;;;;;;;;;5112605;28;20055;-54
2022/04/23 05:15:54;;;;;;;12.23;8.25;;;;;;;;;;5112044;28;20027;-55
2022/04/23 05:18:20;;;;;;;11.00;7.72;;;;;;;;;;5111942;28;20024;-54
2022/04/23 05:20:46;;;;;;;15.38;9.23;;;;;;;;;;5112929;28;20100;-51
2022/04/23 05:23:13;;;;;;;11.25;7.95;;;;;;;;;;5103536;28;20059;-54
2022/04/23 05:25:39;;;;;;;12.15;7.82;;;;;;;;;;5112430;28;20034;-55
2022/04/23 05:28:06;;;;;;;13.52;8.13;;;;;;;;;;5111507;28;20118;-55
2022/04/23 05:30:32;;;;;;;9.73;8.00;;;;;;;;;;5100542;28;20062;-53
2022/04/23 05:32:58;;;;;;;10.82;7.90;;;;;;;;;;5110043;28;20032;-55
2022/04/23 05:35:24;;;;;;;10.05;8.38;;;;;;;;;;5111752;27;20103;-55
2022/04/23 05:37:50;;;;;;;11.60;8.10;;;;;;;;;;5102851;28;20024;-53
2022/04/23 05:40:16;;;;;;;10.05;7.22;;;;;;;;;;5105958;28;20028;-54
2022/04/23 05:42:42;;;;;;;12.38;8.70;;;;;;;;;;5111440;28;20073;-53
2022/04/23 05:45:09;;;;;;;11.38;8.43;;;;;;;;;;5111388;27;20558;-56
2022/04/23 05:47:35;;;;;;;10.25;7.95;;;;;;;;;;5111037;28;20036;-53
2022/04/23 05:50:00;;;;;;;11.23;8.15;;;;;;;;;;5110572;28;20035;-56
2022/04/23 05:52:26;;;;;;;9.23;7.53;;;;;;;;;;5108415;28;20062;-55
2022/04/23 05:54:53;;;;;;;12.27;8.13;;;;;;;;;;5110227;28;20595;-53
2022/04/23 05:57:19;;;;;;;10.02;7.85;;;;;;;;;;5109003;28;20111;-54
2022/04/23 05:59:45;;;;;;;11.65;7.80;;;;;;;;;;5110747;28;20029;-55
2022/04/23 06:02:13;;;;;;;10.65;9.02;;;;;;;;;;5110106;28;20020;-56
2022/04/23 06:04:39;;;;;;;10.70;8.77;;;;;;;;;;5110071;28;20016;-55
2022/04/23 06:07:05;;;;;;;14.70;9.30;;;;;;;;;;5110008;28;20030;-55
2022/04/23 06:09:31;;;;;;;11.52;8.75;;;;;;;;;;5108713;28;20775;-56
2022/04/23 06:11:57;;;;;;;15.77;9.02;;;;;;;;;;5110527;28;20161;-56
2022/04/23 06:14:23;;;;;;;12.63;8.05;;;;;;;;;;5110883;28;20586;-56
2022/04/23 06:16:49;;;;;;;14.43;8.15;;;;;;;;;;5111187;28;20433;-54
2022/04/23 06:19:15;;;;;;;16.98;8.38;;;;;;;;;;5110631;28;20062;-53
2022/04/23 06:21:41;;;;;;;14.00;8.02;;;;;;;;;;5110434;27;20027;-51
2022/04/23 06:24:07;;;;;;;13.60;7.85;;;;;;;;;;5109384;28;20019;-55
2022/04/23 06:26:34;;;;;;;15.93;7.70;;;;;;;;;;5111407;28;20051;-56
2022/04/23 06:29:00;;;;;;;16.48;7.65;;;;;;;;;;5110115;28;20528;-54
2022/04/23 06:31:26;;;;;;;11.13;7.28;;;;;;;;;;5110715;28;20043;-58
2022/04/23 06:33:52;;;;;;;11.23;7.35;;;;;;;;;;5109752;28;20780;-56
2022/04/23 06:36:18;;;;;;;16.17;8.05;;;;;;;;;;5106065;28;20550;-57
2022/04/23 06:38:44;;;;;;;13.68;7.68;;;;;;;;;;5101287;28;20107;-56
2022/04/23 06:41:10;;;;;;;27.80;13.57;;;;;;;;;;5109245;28;20024;-57
2022/04/23 06:43:36;;;;;;;21.02;15.50;;;;;;;;;;5110241;28;20099;-57
2022/04/23 06:46:02;;;;;;;23.65;16.77;;;;;;;;;;5109523;28;20833;-57
2022/04/23 06:48:28;;;;;;;31.58;16.35;;;;;;;;;;5109711;28;20031;-54
2022/04/23 06:50:54;;;;;;;21.88;16.42;;;;;;;;;;5108848;28;20126;-56
2022/04/23 06:53:20;;;;;;;26.73;16.35;;;;;;;;;;5110049;28;20549;-57
2022/04/23 06:55:46;;;;;;;24.92;16.90;;;;;;;;;;5104932;28;20145;-55
2022/04/23 06:58:15;;;;;;;20.70;15.43;;;;;;;;;;5111290;28;20102;-56
2022/04/23 07:00:41;;;;;;;20.40;14.27;;;;;;;;;;5102902;28;20039;-55
2022/04/23 07:03:08;;;;;;;19.88;14.50;;;;;;;;;;5104604;28;20461;-57
2022/04/23 07:05:34;;;;;;;22.73;14.15;;;;;;;;;;5109833;28;20652;-56
2022/04/23 07:08:03;;;;;;;19.33;13.48;;;;;;;;;;5110061;28;20027;-57
2022/04/23 07:10:31;;;;;;;20.65;14.50;;;;;;;;;;5108549;28;20042;-57
2022/04/23 07:12:59;;;;;;;19.55;13.43;;;;;;;;;;5109430;28;20035;-56
2022/04/23 07:15:27;;;;;;;17.77;12.85;;;;;;;;;;5108651;27;20405;-58
2022/04/23 07:17:53;;;;;;;30.83;12.52;;;;;;;;;;5097893;28;20058;-57
2022/04/23 07:20:20;;;;;;;28.05;13.57;;;;;;;;;;5110102;28;20601;-54
2022/04/23 07:25:32;;;;;;;29.02;15.75;;;;;;;;;;5109461;28;20080;-56
2022/04/23 07:28:01;;;;;;;28.98;14.77;;;;;;;;;;5100816;28;20115;-57
2022/04/23 07:30:28;;;;;;;19.92;14.48;;;;;;;;;;5109547;28;20508;-56
2022/04/23 07:32:54;;;;;;;23.00;13.85;;;;;;;;;;5109588;28;20111;-56
2022/04/23 07:38:12;;;;;;;28.35;13.80;;;;;;;;;;5108376;28;20034;-56
2022/04/23 07:40:40;;;;;;;20.02;13.75;;;;;;;;;;5105602;27;20031;-56
2022/04/23 07:43:09;;;;;;;32.03;13.95;;;;;;;;;;5101309;28;20645;-55
2022/04/23 07:45:35;;;;;;;33.88;13.32;;;;;;;;;;5108600;28;20032;-56
2022/04/23 07:48:01;;;;;;;26.40;11.82;;;;;;;;;;5107767;28;20535;-56
2022/04/23 07:50:27;;;;;;;27.17;11.63;;;;;;;;;;5108966;28;20810;-56
2022/04/23 07:52:53;;;;;;;19.30;11.63;;;;;;;;;;5097523;28;20464;-57
2022/04/23 07:55:19;;;;;;;21.42;10.48;;;;;;;;;;5108400;28;20457;-56
2022/04/23 07:57:45;;;;;;;23.67;10.00;;;;;;;;;;5109157;28;20114;-56
2022/04/23 08:00:11;;;;;;;17.65;9.80;;;;;;;;;;5105857;28;20098;-56
2022/04/23 08:02:37;;;;;;;18.45;9.85;;;;;;;;;;5097133;28;20140;-57
2022/04/23 08:05:04;;;;;;;19.27;10.13;;;;;;;;;;5107914;28;20024;-55
2022/04/23 08:07:30;;;;;;;15.95;10.48;;;;;;;;;;5107562;28;20115;-56
2022/04/23 08:09:56;;;;;;;17.48;9.90;;;;;;;;;;5107662;28;20031;-56
2022/04/23 08:12:23;;;;;;;19.08;9.32;;;;;;;;;;5100746;27;20033;-56
2022/04/23 08:14:49;;;;;;;17.88;9.07;;;;;;;;;;5109125;28;20030;-55
2022/04/23 08:17:15;;;;;;;15.20;9.00;;;;;;;;;;5106782;28;20541;-57
2022/04/23 08:19:41;;;;;;;14.55;9.40;;;;;;;;;;5106838;28;20523;-56
2022/04/23 08:22:07;;;;;;;14.63;8.43;;;;;;;;;;5108504;28;20239;-56
2022/04/23 08:24:33;;;;;;;14.73;9.05;;;;;;;;;;5108491;28;20955;-56
2022/04/23 08:26:59;;;;;;;31.23;9.60;;;;;;;;;;5108732;28;20019;-58
2022/04/23 08:32:10;;;;;;;18.00;8.50;;;;;;;;;;5088576;28;20047;-54
2022/04/23 08:34:36;;;;;;;15.77;9.38;;;;;;;;;;5105527;28;20024;-56
2022/04/23 08:37:02;;;;;;;15.10;9.02;;;;;;;;;;5108869;28;20114;-57
2022/04/23 08:39:28;;;;;;;18.05;8.27;;;;;;;;;;5108133;28;20106;-52
2022/04/23 08:41:54;;;;;;;12.70;8.32;;;;;;;;;;5108236;28;20076;-57
2022/04/23 08:44:21;;;;;;;18.10;8.00;;;;;;;;;;5108388;28;20032;-57
2022/04/23 08:46:48;;;;;;;14.25;7.80;;;;;;;;;;5108564;28;20106;-56
2022/04/23 08:49:15;;;;;;;32.80;8.60;;;;;;;;;;5107335;28;20473;-55
2022/04/23 08:51:43;;;;;;;21.30;13.38;;;;;;;;;;5098056;28;20051;-56
2022/04/23 08:54:10;;;;;;;21.73;16.20;;;;;;;;;;5107143;28;20473;-56
2022/04/23 08:56:41;;;;;;;21.35;17.48;;;;;;;;;;5106676;28;20024;-57
2022/04/23 08:59:07;;;;;;;22.48;16.42;;;;;;;;;;5108405;28;20023;-55
2022/04/23 09:01:34;;;;;;;22.20;18.92;;;;;;;;;;5108305;28;20028;-56
2022/04/23 09:04:01;;;;;;;20.75;18.10;;;;;;;;;;5094676;28;20032;-55
2022/04/23 09:06:47;;;;;;;24.20;17.30;;;;;;;;;;5106914;28;20035;-57
2022/04/23 09:09:13;;;;;;;24.48;18.73;;;;;;;;;;5107654;28;20489;-57
2022/04/23 09:11:40;;;;;;;22.95;18.48;;;;;;;;;;5108200;28;20089;-55
2022/04/23 09:14:08;;;;;;;20.00;17.25;;;;;;;;;;5107874;28;20106;-55
2022/04/23 09:25:06;;;;;;;24.10;18.33;;;;;;;;;;5108102;28;20035;-56
2022/04/23 09:27:34;;;;;;;20.92;18.13;;;;;;;;;;5107631;28;20466;-56
2022/04/23 09:30:00;;;;;;;22.15;18.20;;;;;;;;;;5104900;28;20099;-55
2022/04/23 09:32:27;;;;;;;22.67;18.20;;;;;;;;;;5107467;28;20154;-55
2022/04/23 09:35:13;;;;;;;23.75;19.33;;;;;;;;;;5099590;28;20040;-53
2022/04/23 09:40:27;;;;;;;24.33;20.25;;;;;;;;;;5109907;28;20933;-56
2022/04/23 09:43:00;;;;;;;24.77;19.15;;;;;;;;;;5111718;28;20397;-56
2022/04/23 09:45:29;;;;;;;23.33;19.83;;;;;;;;;;5111291;28;20510;-56
2022/04/23 09:47:55;;;;;;;26.55;19.35;;;;;;;;;;5100333;28;20028;-56
2022/04/23 09:50:21;;;;;;;23.77;20.02;;;;;;;;;;5111021;28;20088;-55
2022/04/23 09:52:49;;;;;;;22.02;19.48;;;;;;;;;;5112060;28;20541;-55
2022/04/23 09:55:16;;;;;;;24.42;19.50;;;;;;;;;;5110699;28;20824;-57
2022/04/23 09:57:45;;;;;;;26.05;21.50;;;;;;;;;;5111483;28;20114;-55
2022/04/23 10:00:11;;;;;;;27.00;20.40;;;;;;;;;;5111192;28;20015;-56
2022/04/23 10:02:38;;;;;;;27.30;20.00;;;;;;;;;;5110962;28;20046;-54
2022/04/23 10:05:05;;;;;;;28.27;20.98;;;;;;;;;;5110739;28;20028;-56
2022/04/23 10:07:34;;;;;;;26.02;20.67;;;;;;;;;;5111298;28;20027;-56
2022/04/23 10:10:02;;;;;;;24.60;20.98;;;;;;;;;;5098260;28;20111;-55
2022/04/23 10:12:33;;;;;;;24.45;18.58;;;;;;;;;;5105569;28;20076;-54
2022/04/23 10:15:00;;;;;;;23.83;19.08;;;;;;;;;;5111015;28;20020;-56
2022/04/23 10:17:28;;;;;;;22.23;19.40;;;;;;;;;;5110493;28;20470;-51
2022/04/23 10:19:57;;;;;;;22.48;19.80;;;;;;;;;;5111225;28;20059;-55
2022/04/23 10:22:32;;;;;;;23.58;18.98;;;;;;;;;;5110866;28;20111;-56
2022/04/23 10:25:22;;;;;;;24.63;19.25;;;;;;;;;;5109419;28;20130;-55
2022/04/23 10:27:50;;;;;;;24.27;19.88;;;;;;;;;;5110178;28;20035;-57
2022/04/23 10:30:16;;;;;;;26.70;20.35;;;;;;;;;;5110068;28;20120;-58
2022/04/23 10:32:43;;;;;;;22.92;18.77;;;;;;;;;;5107857;28;20110;-57
2022/04/23 10:35:18;;;;;;;24.40;19.38;;;;;;;;;;5102667;28;20036;-58
2022/04/23 10:37:44;;;;;;;25.15;19.45;;;;;;;;;;5100181;28;20164;-58
2022/04/23 10:40:15;;;;;;;23.10;18.13;;;;;;;;;;5109121;28;20135;-57
2022/04/23 10:43:01;;;;;;;28.58;19.50;;;;;;;;;;5110652;28;20047;-57
2022/04/23 10:45:34;;;;;;;27.58;19.73;;;;;;;;;;5109892;28;20032;-57
2022/04/23 10:48:19;;;;;;;32.83;19.10;;;;;;;;;;5109983;28;20107;-56
2022/04/23 10:51:04;;;;;;;26.35;20.05;;;;;;;;;;5110140;28;20152;-55
2022/04/23 10:53:39;;;;;;;27.63;19.52;;;;;;;;;;5108811;28;20023;-54
2022/04/23 10:56:06;;;;;;;24.60;19.65;;;;;;;;;;5109679;28;20032;-55
2022/04/23 10:58:33;;;;;;;23.45;19.92;;;;;;;;;;5110114;28;20027;-55
2022/04/23 11:01:20;;;;;;;27.73;19.55;;;;;;;;;;5109770;28;20076;-53
2022/04/23 11:03:50;;;;;;;25.50;19.00;;;;;;;;;;5109851;28;20027;-55
2022/04/23 11:12:22;;;;;;;25.20;18.85;;;;;;;;;;5108020;28;20086;-57
2022/04/23 11:14:52;;;;;;;29.02;17.92;;;;;;;;;;5107639;28;20020;-56
2022/04/23 11:17:32;;;;;;;27.33;18.50;;;;;;;;;;5108200;28;20032;-56
2022/04/23 11:19:58;;;;;;;27.85;17.45;;;;;;;;;;5108266;28;20536;-56
2022/04/23 11:22:24;;;;;;;25.50;17.38;;;;;;;;;;5109338;27;20189;-57
2022/04/23 11:24:52;;;;;;;27.77;16.77;;;;;;;;;;5107069;28;20019;-56
2022/04/23 11:27:38;;;;;;;22.90;17.33;;;;;;;;;;5107806;28;20059;-54
2022/04/23 11:30:05;;;;;;;21.75;15.70;;;;;;;;;;5106227;28;20136;-56
2022/04/23 11:32:32;;;;;;;23.88;16.42;;;;;;;;;;5108440;28;20102;-56
2022/04/23 11:34:59;;;;;;;19.95;15.85;;;;;;;;;;5108232;28;20054;-56
2022/04/23 11:37:43;;;;;;;24.88;16.35;;;;;;;;;;5107750;28;20129;-56
2022/04/23 11:40:20;;;;;;;23.23;17.05;;;;;;;;;;5108130;27;20031;-57
2022/04/23 11:42:47;;;;;;;23.30;15.40;;;;;;;;;;5108490;28;20031;-57
2022/04/23 11:45:16;;;;;;;20.65;15.52;;;;;;;;;;5108624;28;20104;-57
2022/04/23 11:47:42;;;;;;;21.58;15.30;;;;;;;;;;5103659;28;20110;-56
2022/04/23 11:50:18;;;;;;;23.02;15.23;;;;;;;;;;5107453;28;20032;-57
2022/04/23 11:52:46;;;;;;;18.77;15.50;;;;;;;;;;5096493;28;20039;-56
2022/04/23 11:55:22;;;;;;;19.73;14.63;;;;;;;;;;5104632;28;20035;-56
2022/04/23 11:58:04;;;;;;;19.80;14.88;;;;;;;;;;5108352;28;20119;-57
2022/04/23 12:00:34;;;;;;;18.65;13.55;;;;;;;;;;5106184;28;20074;-56
2022/04/23 12:03:00;;;;;;;20.40;13.60;;;;;;;;;;5108200;28;20020;-57
2022/04/23 12:05:36;;;;;;;17.20;13.82;;;;;;;;;;5107393;28;20110;-57
2022/04/23 12:08:05;;;;;;;18.13;12.65;;;;;;;;;;5107375;28;20393;-57
2022/04/23 12:10:32;;;;;;;20.23;13.90;;;;;;;;;;5102232;28;20054;-55
2022/04/23 12:13:07;;;;;;;18.67;12.57;;;;;;;;;;5107196;28;20443;-57
2022/04/23 12:15:35;;;;;;;18.25;12.93;;;;;;;;;;5106672;28;20019;-56
2022/04/23 12:18:01;;;;;;;17.92;12.40;;;;;;;;;;5099608;28;20059;-56
2022/04/23 12:20:28;;;;;;;16.80;12.50;;;;;;;;;;5107184;27;20073;-57
2022/04/23 12:22:55;;;;;;;18.85;13.45;;;;;;;;;;5107565;27;20022;-57
2022/04/23 12:25:21;;;;;;;32.05;13.68;;;;;;;;;;5089190;28;20031;-57
2022/04/23 12:28:00;;;;;;;20.88;12.07;;;;;;;;;;5108115;28;20030;-57
2022/04/23 12:41:55;;;;;;;20.02;11.55;;;;;;;;;;5096804;28;20035;-56
2022/04/23 12:44:22;;;;;;;23.53;12.23;;;;;;;;;;5107724;28;20028;-56
2022/04/23 12:46:56;;;;;;;29.52;13.32;;;;;;;;;;5108244;28;20110;-56
2022/04/23 12:49:22;;;;;;;28.70;12.93;;;;;;;;;;5107860;28;20041;-56
2022/04/23 12:51:55;;;;;;;25.75;12.73;;;;;;;;;;5093711;28;20035;-53
2022/04/23 12:54:22;;;;;;;24.90;14.88;;;;;;;;;;5099523;28;20046;-55
2022/04/23 12:56:49;;;;;;;22.83;14.23;;;;;;;;;;5097708;28;20039;-56
2022/04/23 12:59:15;;;;;;;29.75;16.20;;;;;;;;;;5097737;28;20031;-56
2022/04/23 13:01:41;;;;;;;27.95;14.60;;;;;;;;;;5097603;28;20028;-57
2022/04/23 13:04:12;;;;;;;20.05;15.25;;;;;;;;;;5097009;28;20019;-56
2022/04/23 13:09:23;;;;;;;23.48;14.07;;;;;;;;;;5097212;28;20081;-56
2022/04/23 13:11:51;;;;;;;24.52;15.63;;;;;;;;;;5096609;28;20036;-56
2022/04/23 13:14:17;;;;;;;21.58;15.35;;;;;;;;;;5101378;28;20058;-60
2022/04/23 13:16:44;;;;;;;21.13;15.77;;;;;;;;;;5105084;27;20081;-54
2022/04/23 13:19:10;;;;;;;21.83;15.30;;;;;;;;;;5101881;28;20150;-56
2022/04/23 13:21:36;;;;;;;27.05;16.33;;;;;;;;;;5100621;28;20358;-56
2022/04/23 13:24:03;;;;;;;21.35;15.27;;;;;;;;;;5101995;28;20043;-54
2022/04/23 13:26:29;;;;;;;19.63;16.52;;;;;;;;;;5106481;28;20020;-54
2022/04/23 13:28:58;;;;;;;20.52;14.70;;;;;;;;;;5104594;28;20039;-54
2022/04/23 13:31:24;;;;;;;23.63;15.10;;;;;;;;;;5103528;28;20040;-56
2022/04/23 13:33:51;;;;;;;17.83;14.82;;;;;;;;;;5102380;27;20065;-56
2022/04/23 13:36:19;;;;;;;18.50;15.88;;;;;;;;;;5100491;28;20031;-54
2022/04/23 13:38:45;;;;;;;20.30;16.77;;;;;;;;;;5101231;28;20049;-56
2022/04/23 13:41:13;;;;;;;20.13;15.63;;;;;;;;;;5102073;28;20491;-57
2022/04/23 13:43:40;;;;;;;19.83;16.58;;;;;;;;;;5101995;28;20070;-57
2022/04/23 13:46:06;;;;;;;22.77;17.25;;;;;;;;;;5103411;28;20505;-57
2022/04/23 13:48:33;;;;;;;17.30;14.23;;;;;;;;;;5102483;28;20028;-57
2022/04/23 13:50:59;;;;;;;19.83;15.50;;;;;;;;;;5101181;28;20559;-57
2022/04/23 13:53:27;;;;;;;18.75;13.95;;;;;;;;;;5101625;28;20529;-57
2022/04/23 13:55:53;;;;;;;18.83;15.13;;;;;;;;;;5103092;28;20046;-57
2022/04/23 13:58:19;;;;;;;18.23;14.65;;;;;;;;;;5102432;28;20032;-57
2022/04/23 14:00:46;;;;;;;17.23;14.43;;;;;;;;;;5100889;28;20123;-54
2022/04/23 14:11:27;;;;;;;27.77;14.82;;;;;;;;;;5097888;27;20653;-55
2022/04/23 14:13:53;;;;;;;21.70;13.82;;;;;;;;;;5103549;28;20058;-57
2022/04/23 14:16:19;;;;;;;16.55;13.35;;;;;;;;;;5102587;28;20152;-56
2022/04/23 14:18:45;;;;;;;21.48;12.82;;;;;;;;;;5103659;28;20031;-56
2022/04/23 14:21:11;;;;;;;20.15;15.43;;;;;;;;;;5101430;28;20031;-56
2022/04/23 14:23:37;;;;;;;20.52;13.63;;;;;;;;;;5100260;28;20998;-56
2022/04/23 14:26:04;;;;;;;17.58;13.18;;;;;;;;;;5098390;28;20042;-56
2022/04/23 14:28:30;;;;;;;16.90;13.15;;;;;;;;;;5101818;28;20031;-56
2022/04/23 14:30:56;;;;;;;18.95;13.07;;;;;;;;;;5099413;28;20051;-58
2022/04/23 14:33:22;;;;;;;21.52;12.93;;;;;;;;;;5100476;27;20131;-56
2022/04/23 14:35:49;;;;;;;15.10;13.18;;;;;;;;;;5103560;28;20492;-55
2022/04/23 14:38:15;;;;;;;16.48;12.90;;;;;;;;;;5101865;28;20063;-56
2022/04/23 14:40:41;;;;;;;18.60;13.38;;;;;;;;;;5100639;28;20729;-55
2022/04/23 14:43:08;;;;;;;17.33;12.90;;;;;;;;;;5099539;28;20028;-56
2022/04/23 14:45:38;;;;;;;18.08;13.30;;;;;;;;;;5103011;28;20043;-56
2022/04/23 14:48:05;;;;;;;62.83;18.88;;;;;;;;;;5102675;28;20539;-57
2022/04/23 14:53:10;;;;;;;26.95;15.02;;;;;;;;;;5101792;28;20036;-57
2022/04/23 14:53:18;;;;;;;21.80;14.95;;;;;;;;;;5102135;28;20085;-56
2022/04/23 14:55:44;;;;;;;62.75;18.17;;;;;;;;;;5100362;28;20034;-56
2022/04/23 14:58:10;;;;;;;24.83;13.48;;;;;;;;;;5099939;28;20035;-55
2022/04/23 15:00:36;;;;;;;20.73;13.50;;;;;;;;;;5100125;28;20569;-57
2022/04/23 15:03:02;;;;;;;21.38;13.10;;;;;;;;;;5099090;28;20569;-56
2022/04/23 15:05:29;;;;;;;30.17;13.93;;;;;;;;;;5100939;28;20066;-56
2022/04/23 15:07:56;;;;;;;71.65;18.33;;;;;;;;;;5100662;28;21333;-57
2022/04/23 15:10:22;;;;;;;38.05;14.90;;;;;;;;;;5098677;27;20059;-56
2022/04/23 15:12:49;;;;;;;24.17;14.18;;;;;;;;;;5100254;28;20028;-57
2022/04/23 15:15:15;;;;;;;22.77;12.90;;;;;;;;;;5101726;28;20410;-57
2022/04/23 15:17:42;;;;;;;22.10;12.88;;;;;;;;;;5100659;28;20078;-56
2022/04/23 15:20:08;;;;;;;21.17;13.65;;;;;;;;;;5102782;28;20035;-56
2022/04/23 15:22:35;;;;;;;24.58;14.38;;;;;;;;;;5100554;28;20028;-58